Time;durP1;ratioP1;P1;durP2;ratioP2;P2;SDS_P1;SDS_P2;PMS_P1;PMS_P2;Temp;Humidity;BMP_temperature;BMP_pressure;BME280_temperature;BME280_humidity;BME280_pressure;Samples;Min_cycle;Max_cycle;Signal;HPM_P1;HPM_P2
2022/04/05 00:02:25;;;;;;;15.15;10.88;;;;;;;8.86;53.85;99138.38;4994378;28;20081;-73
2022/04/05 00:04:52;;;;;;;14.20;11.50;;;;;;;8.77;53.55;99151.03;4995291;28;20129;-72
2022/04/05 00:07:18;;;;;;;15.70;10.20;;;;;;;8.95;53.36;99163.16;4988137;28;20462;-72
2022/04/05 00:09:45;;;;;;;21.00;11.20;;;;;;;9.34;52.78;99173.53;5005782;28;20133;-72
2022/04/05 00:12:11;;;;;;;9.82;6.35;;;;;;;8.68;53.13;99180.72;4994065;28;20069;-73
2022/04/05 00:14:38;;;;;;;9.32;3.72;;;;;;;7.80;54.73;99175.06;4993603;28;20100;-73
2022/04/05 00:17:05;;;;;;;6.95;3.20;;;;;;;8.00;54.32;99164.75;4993369;28;20042;-73
2022/04/05 00:19:31;;;;;;;8.38;3.55;;;;;;;8.24;53.76;99158.34;4993877;28;20046;-72
2022/04/05 00:21:58;;;;;;;6.10;3.40;;;;;;;9.08;51.57;99166.81;4993624;28;20108;-73
2022/04/05 00:24:24;;;;;;;6.78;3.88;;;;;;;8.94;51.91;99167.69;4994219;28;20046;-74
2022/04/05 00:26:51;;;;;;;7.82;3.50;;;;;;;9.24;51.33;99173.00;4993216;28;20165;-74
2022/04/05 00:29:19;;;;;;;7.38;3.47;;;;;;;8.77;52.54;99160.91;4993334;28;20487;-74
2022/04/05 00:31:45;;;;;;;8.98;3.50;;;;;;;8.29;54.00;99157.78;4993725;28;20141;-74
2022/04/05 00:34:13;;;;;;;6.60;4.13;;;;;;;8.92;52.70;99148.34;4993503;28;20125;-74
2022/04/05 00:36:40;;;;;;;11.18;5.00;;;;;;;9.01;52.08;99162.41;4993304;28;20046;-74
2022/04/05 00:39:06;;;;;;;10.13;6.45;;;;;;;9.19;51.91;99159.31;4992789;28;20229;-74
2022/04/05 00:41:33;;;;;;;9.73;6.90;;;;;;;9.30;52.24;99157.03;4993968;28;20398;-73
2022/04/05 00:43:59;;;;;;;10.07;5.53;;;;;;;9.40;52.04;99159.38;4993288;28;20048;-73
2022/04/05 00:46:26;;;;;;;5.68;4.45;;;;;;;9.35;52.11;99159.13;4993609;28;20134;-73
2022/04/05 00:48:58;;;;;;;12.90;4.57;;;;;;;9.32;52.35;99170.19;4990284;28;20190;-73
2022/04/05 00:51:25;;;;;;;11.77;4.68;;;;;;;8.99;52.49;99170.66;4993832;28;20467;-73
2022/04/05 00:54:00;;;;;;;15.07;5.97;;;;;;;8.19;55.15;99168.72;4993448;28;20062;-74
2022/04/05 00:56:27;;;;;;;10.55;5.65;;;;;;;9.02;53.23;99159.56;4993151;28;20066;-73
2022/04/05 00:58:54;;;;;;;12.57;6.80;;;;;;;8.69;53.74;99169.03;4992212;28;20069;-73
2022/04/05 01:01:22;;;;;;;20.10;8.02;;;;;;;8.39;54.71;99174.38;4983835;28;20134;-73
2022/04/05 01:03:50;;;;;;;14.55;6.72;;;;;;;8.48;55.12;99175.13;4992858;28;20405;-73
2022/04/05 01:10:05;;;;;;;11.27;7.03;;;;;;;9.10;52.65;99169.31;4991951;28;20053;-74
2022/04/05 01:12:32;;;;;;;18.42;7.13;;;;;;;8.90;53.49;99174.44;4994962;28;20140;-74
2022/04/05 01:14:59;;;;;;;18.75;8.00;;;;;;;8.68;53.95;99178.03;4994426;28;20049;-73
2022/04/05 01:17:26;;;;;;;16.25;6.68;;;;;;;9.16;52.57;99170.41;4994005;28;20525;-74
2022/04/05 01:19:52;;;;;;;13.73;6.40;;;;;;;9.25;52.32;99172.81;4992387;28;20100;-74
2022/04/05 01:22:19;;;;;;;17.90;5.78;;;;;;;9.47;51.47;99180.84;4993085;28;20042;-74
2022/04/05 01:24:45;;;;;;;17.88;6.32;;;;;;;9.37;51.99;99178.50;4992983;28;20130;-74
2022/04/05 01:27:19;;;;;;;14.68;6.00;;;;;;;9.52;51.46;99187.28;4991779;28;20070;-74
2022/04/05 01:29:47;;;;;;;13.27;6.25;;;;;;;9.60;51.90;99190.88;4992612;28;20557;-74
2022/04/05 01:32:14;;;;;;;25.95;7.93;;;;;;;9.11;52.86;99205.75;4993141;28;20501;-73
2022/04/05 01:34:40;;;;;;;19.63;6.55;;;;;;;9.07;52.74;99199.13;4992579;28;20043;-74
2022/04/05 01:37:10;;;;;;;16.38;5.05;;;;;;;9.19;52.18;99208.31;4989445;28;20077;-73
2022/04/05 01:39:38;;;;;;;9.75;2.78;;;;;;;8.42;53.65;99211.41;4992677;28;20046;-74
2022/04/05 01:42:07;;;;;;;12.73;2.42;;;;;;;7.77;54.37;99201.31;4991941;28;20388;-74
2022/04/05 01:44:35;;;;;;;10.15;2.17;;;;;;;7.52;54.83;99206.00;4992398;28;20050;-73
2022/04/05 01:47:10;;;;;;;5.65;1.40;;;;;;;7.54;54.94;99201.34;4992803;28;20084;-74
2022/04/05 01:49:38;;;;;;;12.95;2.28;;;;;;;7.79;55.25;99193.97;4991467;28;20105;-73
2022/04/05 01:52:05;;;;;;;10.15;2.50;;;;;;;8.10;54.07;99193.88;4991393;28;20145;-73
2022/04/05 01:54:31;;;;;;;10.90;2.80;;;;;;;8.46;53.60;99195.84;4991096;28;20376;-73
2022/04/05 01:56:58;;;;;;;11.50;2.55;;;;;;;8.43;53.58;99188.19;4992080;28;20402;-73
2022/04/05 01:59:28;;;;;;;16.48;3.17;;;;;;;8.07;54.60;99184.38;4992924;28;20479;-73
2022/04/05 02:01:55;;;;;;;10.60;2.80;;;;;;;8.00;54.23;99180.78;4992237;28;20129;-73
2022/04/05 02:04:22;;;;;;;15.63;3.38;;;;;;;8.44;54.02;99187.19;4991894;28;20096;-73
2022/04/05 02:06:49;;;;;;;12.23;3.35;;;;;;;8.37;53.99;99184.44;4992032;28;20066;-73
2022/04/05 02:09:16;;;;;;;15.05;3.20;;;;;;;7.78;55.22;99185.13;4991692;28;20077;-74
2022/04/05 02:11:45;;;;;;;21.95;3.30;;;;;;;8.57;53.60;99182.88;4992292;28;20141;-73
2022/04/05 02:14:12;;;;;;;10.98;2.60;;;;;;;8.48;52.94;99188.50;4997167;28;20046;-73
2022/04/05 02:16:39;;;;;;;13.55;2.78;;;;;;;8.76;53.10;99178.78;4992025;28;20082;-74
2022/04/05 02:19:06;;;;;;;13.05;2.63;;;;;;;8.79;52.65;99188.28;4991025;28;20046;-73
2022/04/05 02:21:33;;;;;;;6.35;2.60;;;;;;;8.32;53.20;99192.16;4991158;28;20137;-74
2022/04/05 02:23:59;;;;;;;15.35;2.30;;;;;;;8.64;52.73;99188.28;4992619;28;20447;-73
2022/04/05 02:26:26;;;;;;;11.90;2.15;;;;;;;8.55;53.14;99184.06;4991521;28;20124;-73
2022/04/05 02:28:52;;;;;;;10.15;1.88;;;;;;;8.60;52.32;99187.81;4991778;28;20085;-74
2022/04/05 02:31:19;;;;;;;19.33;2.65;;;;;;;8.20;53.33;99196.28;4991364;28;20460;-74
2022/04/05 02:33:46;;;;;;;13.73;2.35;;;;;;;8.08;53.54;99198.56;4991870;28;20104;-74
2022/04/05 02:36:12;;;;;;;8.85;2.08;;;;;;;8.83;51.87;99198.41;4990662;28;20141;-73
2022/04/05 02:38:39;;;;;;;14.65;2.60;;;;;;;8.78;52.23;99206.19;4991333;28;20110;-74
2022/04/05 02:41:06;;;;;;;12.43;1.95;;;;;;;8.39;52.71;99206.44;4991569;28;20113;-74
2022/04/05 02:43:34;;;;;;;14.48;2.20;;;;;;;8.38;52.86;99205.63;4991736;28;20538;-73
2022/04/05 02:46:01;;;;;;;14.60;1.98;;;;;;;8.20;52.90;99207.00;4989585;28;20133;-74
2022/04/05 02:48:27;;;;;;;9.98;1.45;;;;;;;8.83;52.03;99208.28;4986887;28;20055;-74
2022/04/05 02:50:54;;;;;;;13.20;2.00;;;;;;;8.47;52.22;99209.03;4991398;28;20073;-74
2022/04/05 02:53:21;;;;;;;12.45;1.85;;;;;;;8.02;53.46;99208.16;4990951;28;20050;-74
2022/04/05 02:55:47;;;;;;;10.65;1.75;;;;;;;8.43;52.03;99215.75;4989725;28;20046;-74
2022/04/05 02:58:14;;;;;;;7.88;1.70;;;;;;;8.22;53.00;99211.09;4987298;28;20125;-74
2022/04/05 03:00:40;;;;;;;13.48;2.03;;;;;;;8.35;52.16;99222.00;4991088;28;20050;-74
2022/04/05 03:03:07;;;;;;;14.23;2.25;;;;;;;8.54;51.93;99220.66;4990553;28;20074;-74
2022/04/05 03:05:33;;;;;;;11.73;2.63;;;;;;;8.74;50.94;99212.06;4983933;28;20050;-74
2022/04/05 03:08:00;;;;;;;9.25;1.65;;;;;;;8.05;52.36;99231.81;4988735;28;20420;-74
2022/04/05 03:10:29;;;;;;;13.73;2.08;;;;;;;8.42;51.67;99230.13;4994944;28;20084;-74
2022/04/05 03:12:55;;;;;;;15.75;2.08;;;;;;;8.22;52.23;99245.00;4994572;28;20046;-74
2022/04/05 03:15:22;;;;;;;11.13;2.30;;;;;;;8.57;50.92;99241.69;4994579;28;20117;-74
2022/04/05 03:17:49;;;;;;;15.88;2.35;;;;;;;8.07;52.03;99243.16;4995532;28;20497;-73
2022/04/05 03:20:15;;;;;;;15.30;2.53;;;;;;;8.42;51.20;99245.34;4995816;28;20074;-74
2022/04/05 03:22:42;;;;;;;14.57;1.95;;;;;;;8.55;51.58;99243.69;4995014;28;20516;-74
2022/04/05 03:25:10;;;;;;;13.57;2.55;;;;;;;8.71;50.72;99248.03;4994536;28;20046;-74
2022/04/05 03:27:40;;;;;;;14.43;2.22;;;;;;;8.64;50.96;99246.25;4994212;28;20458;-74
2022/04/05 03:30:09;;;;;;;11.25;1.63;;;;;;;8.44;51.52;99249.50;4995130;28;20077;-74
2022/04/05 03:32:36;;;;;;;18.27;2.88;;;;;;;8.58;50.67;99240.66;4995611;28;20076;-74
2022/04/05 03:35:04;;;;;;;19.10;2.38;;;;;;;8.49;51.17;99240.91;4995322;28;20141;-73
2022/04/05 03:37:31;;;;;;;10.63;2.30;;;;;;;8.38;51.77;99239.53;4994486;28;20137;-73
2022/04/05 03:39:57;;;;;;;17.98;1.67;;;;;;;8.57;50.60;99247.03;4994570;28;20069;-73
2022/04/05 03:42:24;;;;;;;12.15;2.70;;;;;;;8.53;50.85;99242.22;4993455;28;20053;-73
2022/04/05 03:44:50;;;;;;;11.77;2.15;;;;;;;8.82;50.24;99241.41;4994442;28;20130;-73
2022/04/05 03:47:17;;;;;;;13.55;1.77;;;;;;;8.73;50.52;99239.81;4993884;28;20074;-73
2022/04/05 03:49:44;;;;;;;14.32;2.10;;;;;;;8.17;51.37;99239.41;4994517;28;20104;-73
2022/04/05 03:52:10;;;;;;;11.85;2.10;;;;;;;8.72;50.35;99246.19;4993657;28;20066;-73
2022/04/05 03:54:37;;;;;;;10.68;1.75;;;;;;;8.68;50.40;99259.09;4988389;28;20132;-73
2022/04/05 03:57:03;;;;;;;14.93;2.20;;;;;;;8.91;49.49;99261.66;4993686;28;20129;-73
2022/04/05 03:59:30;;;;;;;16.83;2.38;;;;;;;8.44;50.54;99272.72;4994443;28;20479;-73
2022/04/05 04:01:56;;;;;;;9.93;1.65;;;;;;;8.97;49.65;99257.44;4993203;28;20129;-73
2022/04/05 04:04:23;;;;;;;9.88;1.85;;;;;;;8.98;49.67;99264.44;4993683;28;20073;-72
2022/04/05 04:06:49;;;;;;;14.55;1.77;;;;;;;9.20;48.53;99273.38;4993989;28;20577;-72
2022/04/05 04:09:16;;;;;;;15.18;2.30;;;;;;;8.99;49.24;99274.09;4993404;28;20073;-73
2022/04/05 04:11:44;;;;;;;14.02;3.25;;;;;;;8.56;50.39;99272.06;4993591;28;20072;-73
2022/04/05 04:14:11;;;;;;;13.75;2.50;;;;;;;7.98;51.48;99280.78;4994022;28;20046;-73
2022/04/05 04:16:37;;;;;;;15.93;2.85;;;;;;;8.30;51.10;99285.03;4993810;28;20077;-73
2022/04/05 04:19:04;;;;;;;18.42;3.25;;;;;;;8.72;49.94;99287.13;4993601;28;20050;-74
2022/04/05 04:21:30;;;;;;;14.38;1.80;;;;;;;8.23;51.22;99292.94;4994375;28;20042;-74
2022/04/05 04:23:57;;;;;;;11.45;1.83;;;;;;;7.97;51.60;99290.63;4993606;28;20133;-73
2022/04/05 04:26:24;;;;;;;16.27;2.10;;;;;;;8.06;51.15;99286.06;4994872;28;20057;-74
2022/04/05 04:28:53;;;;;;;15.50;2.67;;;;;;;7.97;51.10;99292.47;4993898;28;20125;-74
2022/04/05 04:31:19;;;;;;;13.20;2.10;;;;;;;8.16;50.80;99291.16;4992927;28;20541;-73
2022/04/05 04:33:46;;;;;;;13.07;1.65;;;;;;;8.52;49.96;99302.84;4994283;28;20050;-73
2022/04/05 04:36:13;;;;;;;11.35;2.22;;;;;;;8.04;50.64;99293.41;4994040;28;20527;-73
2022/04/05 04:38:39;;;;;;;19.63;2.28;;;;;;;8.16;49.95;99297.34;4993773;28;20054;-72
2022/04/05 04:41:07;;;;;;;11.25;1.77;;;;;;;8.65;49.27;99298.75;4995098;28;20486;-73
2022/04/05 04:43:34;;;;;;;15.27;2.47;;;;;;;8.12;50.77;99302.22;4997006;28;20062;-72
2022/04/05 04:46:01;;;;;;;9.95;2.15;;;;;;;8.27;50.25;99306.78;4990692;28;20077;-72
2022/04/05 04:48:28;;;;;;;17.17;2.60;;;;;;;8.49;49.21;99305.88;4994120;28;20511;-72
2022/04/05 04:50:54;;;;;;;19.10;2.40;;;;;;;8.18;49.74;99308.66;4994017;28;20057;-72
2022/04/05 04:53:21;;;;;;;15.38;2.25;;;;;;;8.25;50.23;99320.28;4993315;28;20141;-73
2022/04/05 04:55:48;;;;;;;21.77;2.72;;;;;;;8.48;49.54;99312.25;4993361;28;20459;-72
2022/04/05 04:58:35;;;;;;;16.05;2.65;;;;;;;8.33;50.03;99309.56;4993690;28;20046;-72
2022/04/05 05:01:01;;;;;;;12.60;2.60;;;;;;;8.42;49.70;99314.81;4993421;28;20050;-72
2022/04/05 05:03:28;;;;;;;19.45;2.90;;;;;;;8.40;50.22;99317.69;4992126;28;20047;-72
2022/04/05 05:05:54;;;;;;;17.42;2.38;;;;;;;8.31;49.91;99322.25;4992602;28;20513;-72
2022/04/05 05:08:21;;;;;;;24.10;2.67;;;;;;;8.53;49.80;99325.91;4991998;28;20046;-72
2022/04/05 05:10:48;;;;;;;22.30;4.35;;;;;;;8.69;49.17;99327.59;4991406;28;20050;-72
2022/04/05 05:13:17;;;;;;;17.52;3.42;;;;;;;7.72;51.46;99327.31;4992265;28;20129;-71
2022/04/05 05:15:43;;;;;;;17.25;3.72;;;;;;;8.21;50.51;99332.34;4986108;28;20158;-72
2022/04/05 05:18:10;;;;;;;19.90;5.35;;;;;;;8.79;48.42;99333.50;4990834;28;20522;-72
2022/04/05 05:20:36;;;;;;;23.92;4.68;;;;;;;8.26;50.15;99331.81;4992773;28;20070;-71
2022/04/05 05:23:03;;;;;;;19.77;2.83;;;;;;;7.75;51.09;99328.81;4992185;28;20050;-72
2022/04/05 05:25:30;;;;;;;19.08;2.88;;;;;;;8.14;50.47;99337.56;4992585;28;20073;-71
2022/04/05 05:27:56;;;;;;;17.38;3.15;;;;;;;8.16;50.03;99336.56;4992314;28;20070;-71
2022/04/05 05:30:23;;;;;;;17.80;3.95;;;;;;;8.50;49.72;99344.97;4991582;28;20130;-71
2022/04/05 05:32:50;;;;;;;18.50;3.17;;;;;;;8.67;49.08;99344.81;4992013;28;20082;-71
2022/04/05 05:35:18;;;;;;;27.00;4.00;;;;;;;8.30;49.19;99352.66;4992197;28;20533;-71
2022/04/05 05:37:45;;;;;;;19.10;2.53;;;;;;;9.16;47.30;99358.53;4991146;28;20068;-71
2022/04/05 05:40:13;;;;;;;16.05;3.70;;;;;;;8.58;48.76;99371.63;4992039;28;20134;-72
2022/04/05 05:42:57;;;;;;;14.82;3.30;;;;;;;9.08;47.40;99367.47;4991858;28;20513;-72
2022/04/05 05:45:25;;;;;;;25.65;3.65;;;;;;;8.74;48.79;99375.16;4992324;28;20074;-72
2022/04/05 05:47:51;;;;;;;22.20;3.65;;;;;;;8.54;48.61;99382.88;4991820;28;20133;-71
2022/04/05 05:50:19;;;;;;;25.65;4.50;;;;;;;8.79;48.50;99391.50;4992211;28;20042;-71
2022/04/05 05:52:46;;;;;;;18.80;3.13;;;;;;;9.02;47.36;99394.97;4992127;28;20514;-71
2022/04/05 05:55:15;;;;;;;22.10;3.53;;;;;;;9.02;47.56;99400.31;4989886;28;20046;-71
2022/04/05 05:57:42;;;;;;;18.05;3.40;;;;;;;8.83;47.68;99401.66;4997208;28;20066;-71
2022/04/05 06:00:11;;;;;;;16.77;2.95;;;;;;;8.90;47.61;99399.09;4992160;28;20054;-71
2022/04/05 06:02:39;;;;;;;20.70;2.95;;;;;;;8.30;48.81;99405.28;4992086;28;20457;-71
2022/04/05 06:05:06;;;;;;;17.33;3.08;;;;;;;9.19;47.53;99406.31;4992752;28;20149;-71
2022/04/05 06:07:41;;;;;;;23.35;3.92;;;;;;;8.99;46.86;99415.88;4987226;28;20129;-71
2022/04/05 06:10:09;;;;;;;25.30;3.70;;;;;;;8.87;47.53;99423.53;4993670;28;20478;-71
2022/04/05 06:12:38;;;;;;;21.35;3.15;;;;;;;9.20;46.23;99416.03;4999741;28;20050;-72
2022/04/05 06:15:08;;;;;;;22.75;2.95;;;;;;;8.10;47.80;99426.28;4995039;28;20120;-72
2022/04/05 06:17:41;;;;;;;23.73;3.10;;;;;;;8.33;47.45;99426.28;4991314;28;20056;-72
2022/04/05 06:20:09;;;;;;;19.58;3.67;;;;;;;8.84;46.23;99432.72;4993134;28;20077;-72
2022/04/05 06:22:47;;;;;;;24.02;3.53;;;;;;;8.78;46.77;99438.81;4994532;28;20046;-72
2022/04/05 06:25:16;;;;;;;16.83;2.97;;;;;;;9.05;45.86;99440.06;4992378;28;20050;-72
2022/04/05 06:27:43;;;;;;;13.57;2.90;;;;;;;8.94;45.99;99445.84;4990537;28;20462;-72
2022/04/05 06:30:10;;;;;;;22.02;2.40;;;;;;;8.81;45.69;99457.16;4992283;28;20046;-72
2022/04/05 06:32:37;;;;;;;14.05;2.25;;;;;;;8.35;46.22;99461.69;4992483;28;20069;-72
2022/04/05 06:35:06;;;;;;;14.35;2.60;;;;;;;8.51;45.84;99464.25;4991993;28;20073;-72
2022/04/05 06:37:33;;;;;;;17.67;2.70;;;;;;;8.28;45.85;99460.72;4992321;28;20073;-72
2022/04/05 06:39:59;;;;;;;22.30;2.83;;;;;;;8.78;45.64;99462.88;4990532;28;20066;-71
2022/04/05 06:42:25;;;;;;;15.40;2.30;;;;;;;8.73;44.92;99467.09;4989846;28;20498;-72
2022/04/05 06:44:53;;;;;;;15.48;2.15;;;;;;;9.20;44.32;99469.53;4992023;28;20129;-71
2022/04/05 06:47:20;;;;;;;10.35;1.85;;;;;;;9.11;44.69;99477.81;4990708;28;20046;-72
2022/04/05 06:49:46;;;;;;;10.52;2.20;;;;;;;9.47;43.75;99484.19;4991706;28;20070;-72
2022/04/05 06:52:15;;;;;;;10.95;2.00;;;;;;;9.48;43.51;99488.53;4990627;28;20050;-71
2022/04/05 06:54:42;;;;;;;9.45;1.92;;;;;;;8.64;45.02;99497.56;4989967;28;20085;-70
2022/04/05 06:57:10;;;;;;;15.15;1.70;;;;;;;8.75;45.07;99491.84;4992374;28;20082;-72
2022/04/05 06:59:40;;;;;;;;;;;;;;;8.98;44.26;99495.31;4991026;28;20065;-72
2022/04/05 07:02:07;;;;;;;13.10;1.98;;;;;;;9.37;43.48;99494.34;4992114;28;19961;-71
2022/04/05 07:04:33;;;;;;;14.65;1.95;;;;;;;8.89;44.30;99492.91;4990815;28;20447;-72
2022/04/05 07:07:00;;;;;;;10.23;1.70;;;;;;;9.12;43.40;99496.34;4992293;28;20125;-71
2022/04/05 07:09:26;;;;;;;16.40;1.90;;;;;;;9.15;44.01;99500.53;4986249;28;20077;-71
2022/04/05 07:11:56;;;;;;;14.55;2.00;;;;;;;9.98;42.17;99508.38;4991284;28;20043;-71
2022/04/05 07:14:22;;;;;;;15.13;2.47;;;;;;;9.70;42.44;99515.41;4991203;28;20125;-71
2022/04/05 07:16:49;;;;;;;9.05;1.50;;;;;;;9.59;41.87;99514.03;4991183;28;20046;-72
2022/04/05 07:19:15;;;;;;;13.50;2.38;;;;;;;10.64;39.95;99507.53;4991506;28;20505;-73
2022/04/05 07:21:42;;;;;;;14.38;2.35;;;;;;;10.82;39.61;99510.59;4992304;28;20130;-71
2022/04/05 07:24:08;;;;;;;10.65;2.15;;;;;;;11.58;37.71;99510.81;4986222;28;20057;-70
2022/04/05 07:26:35;;;;;;;11.63;2.35;;;;;;;11.59;37.83;99511.69;4990797;28;20100;-72
2022/04/05 07:29:02;;;;;;;19.10;2.22;;;;;;;11.18;38.19;99515.06;4990116;28;20097;-71
2022/04/05 07:31:28;;;;;;;9.38;2.03;;;;;;;12.10;36.46;99508.66;4990339;28;20133;-71
2022/04/05 07:33:55;;;;;;;10.90;1.67;;;;;;;11.11;37.45;99520.38;4991078;28;20491;-71
2022/04/05 07:36:21;;;;;;;11.90;1.92;;;;;;;11.44;37.45;99515.25;4991068;28;20129;-71
2022/04/05 07:38:48;;;;;;;11.05;1.67;;;;;;;11.91;36.29;99516.44;4989028;28;20139;-72
2022/04/05 07:41:14;;;;;;;15.13;1.77;;;;;;;12.28;35.35;99522.41;4992732;28;20097;-72
2022/04/05 07:43:41;;;;;;;10.52;1.50;;;;;;;10.94;36.75;99535.91;4990794;28;20172;-74
2022/04/05 07:46:10;;;;;;;16.58;1.75;;;;;;;10.98;36.34;99531.81;4990007;28;20070;-73
2022/04/05 07:48:36;;;;;;;11.75;1.92;;;;;;;11.55;36.07;99526.50;4991037;28;20081;-71
2022/04/05 07:51:03;;;;;;;11.13;2.08;;;;;;;12.60;33.88;99539.69;4991223;28;20137;-71
2022/04/05 07:53:30;;;;;;;10.98;4.22;;;;;;;12.15;33.75;99549.25;4991454;28;20060;-72
2022/04/05 07:55:57;;;;;;;20.65;2.53;;;;;;;11.62;34.91;99532.75;4994337;28;20129;-71
2022/04/05 07:58:24;;;;;;;13.57;4.60;;;;;;;12.30;34.00;99538.34;4995225;28;20050;-73
2022/04/05 08:00:51;;;;;;;13.18;2.97;;;;;;;12.10;34.09;99547.13;4994169;28;20038;-72
2022/04/05 08:03:18;;;;;;;10.98;2.03;;;;;;;13.40;31.73;99563.25;4994126;28;20046;-72
2022/04/05 08:05:45;;;;;;;10.77;2.28;;;;;;;12.41;32.49;99551.22;4994915;28;20101;-72
2022/04/05 08:08:11;;;;;;;8.00;1.95;;;;;;;12.69;32.20;99561.84;4994251;28;20046;-72
2022/04/05 08:10:58;;;;;;;9.45;2.05;;;;;;;12.74;31.51;99562.13;4993243;28;20043;-72
2022/04/05 08:13:27;;;;;;;11.98;2.63;;;;;;;12.20;32.21;99554.00;4992711;28;20067;-74
2022/04/05 08:15:55;;;;;;;14.30;2.55;;;;;;;13.32;31.24;99565.13;4993906;28;20043;-74
2022/04/05 08:18:22;;;;;;;11.88;1.50;;;;;;;13.70;30.74;99563.66;4994290;28;20042;-74
2022/04/05 08:20:49;;;;;;;10.05;2.10;;;;;;;13.52;30.39;99566.97;4993654;28;20074;-74
2022/04/05 08:23:15;;;;;;;8.77;2.50;;;;;;;13.52;30.30;99570.50;4994951;28;20046;-74
2022/04/05 08:25:42;;;;;;;33.28;2.90;;;;;;;13.83;29.67;99572.56;4995132;28;20197;-74
2022/04/05 08:28:09;;;;;;;11.50;2.10;;;;;;;13.85;29.46;99574.25;4994540;28;20089;-73
2022/04/05 08:30:35;;;;;;;8.25;1.60;;;;;;;13.86;28.79;99575.91;4994679;28;20046;-73
2022/04/05 08:33:02;;;;;;;10.38;1.70;;;;;;;13.06;29.73;99579.38;4993889;28;20052;-73
2022/04/05 08:35:28;;;;;;;10.07;1.73;;;;;;;13.64;29.18;99578.81;4993479;28;20080;-74
2022/04/05 08:37:55;;;;;;;11.85;1.85;;;;;;;14.90;27.98;99572.25;4993360;28;20048;-74
2022/04/05 08:40:24;;;;;;;12.25;2.65;;;;;;;14.07;28.45;99583.75;4994439;28;20154;-73
2022/04/05 08:42:53;;;;;;;9.50;1.63;;;;;;;13.68;28.21;99582.75;4992717;28;20081;-73
2022/04/05 08:45:21;;;;;;;11.38;2.05;;;;;;;12.78;28.47;99576.00;4992793;28;20125;-73
2022/04/05 08:47:54;;;;;;;11.10;1.88;;;;;;;14.16;27.19;99592.44;4992862;28;20133;-74
2022/04/05 08:50:23;;;;;;;10.10;2.80;;;;;;;14.73;26.81;99586.22;4993800;28;20406;-73
2022/04/05 08:52:51;;;;;;;8.65;2.17;;;;;;;14.83;26.71;99579.56;4993674;28;20442;-75
2022/04/05 08:55:17;;;;;;;9.82;1.67;;;;;;;16.14;27.00;99584.97;4974271;28;20074;-68
2022/04/05 08:57:44;;;;;;;8.50;1.27;;;;;;;15.09;28.40;99592.91;4974636;28;20113;-67
2022/04/05 09:00:13;;;;;;;8.45;1.58;;;;;;;15.13;28.23;99602.22;4973377;28;20074;-68
2022/04/05 09:02:51;;;;;;;14.48;1.95;;;;;;;15.21;27.88;99610.06;4973953;28;20071;-69
2022/04/05 09:05:33;;;;;;;8.07;1.70;;;;;;;15.07;27.69;99616.59;4973543;28;20134;-67
2022/04/05 09:08:19;;;;;;;11.65;1.90;;;;;;;15.07;27.92;99611.19;4974179;28;20054;-67
2022/04/05 09:10:52;;;;;;;8.55;2.13;;;;;;;15.51;27.41;99614.03;4974224;28;20121;-67
2022/04/05 09:13:22;;;;;;;19.23;1.50;;;;;;;15.70;27.16;99608.47;4973269;28;20410;-67
2022/04/05 09:15:52;;;;;;;6.53;1.60;;;;;;;15.23;27.72;99613.38;4992003;28;20049;-68
2022/04/05 09:18:31;;;;;;;11.90;1.83;;;;;;;14.38;28.70;99609.19;4992521;28;20077;-73
2022/04/05 09:20:57;;;;;;;7.70;2.03;;;;;;;13.94;28.25;99619.66;4993436;28;20046;-75
2022/04/05 09:23:35;;;;;;;9.38;1.73;;;;;;;13.13;29.45;99616.28;4993373;28;20177;-75
2022/04/05 09:26:10;;;;;;;10.82;1.70;;;;;;;13.27;29.74;99621.47;4992638;28;20050;-75
2022/04/05 09:28:39;;;;;;;8.10;1.60;;;;;;;13.55;28.96;99610.50;4992895;28;20133;-75
2022/04/05 09:31:08;;;;;;;11.45;1.60;;;;;;;12.78;29.70;99605.59;4991304;28;20093;-74
2022/04/05 09:33:38;;;;;;;11.40;2.10;;;;;;;13.69;28.49;99615.91;4992124;28;20054;-74
2022/04/05 09:36:16;;;;;;;6.88;1.63;;;;;;;13.88;28.15;99622.38;4992623;28;20045;-74
2022/04/05 09:38:44;;;;;;;13.82;2.03;;;;;;;14.01;28.42;99620.50;4992010;28;20121;-74
2022/04/05 09:41:22;;;;;;;11.00;1.70;;;;;;;13.19;29.67;99629.75;4991961;28;20042;-75
2022/04/05 09:44:00;;;;;;;12.80;1.83;;;;;;;12.63;29.90;99622.72;4992829;28;20142;-75
2022/04/05 09:46:28;;;;;;;11.88;1.90;;;;;;;12.56;30.31;99619.16;4991557;28;20085;-75
2022/04/05 09:49:05;;;;;;;7.97;1.42;;;;;;;12.63;30.80;99622.72;4992195;28;20042;-75
2022/04/05 09:51:37;;;;;;;8.50;1.80;;;;;;;13.00;30.26;99627.81;4990398;28;20074;-74
2022/04/05 09:54:04;;;;;;;10.45;1.90;;;;;;;12.73;30.73;99634.94;4991024;28;20105;-74
2022/04/05 09:56:34;;;;;;;15.32;1.80;;;;;;;12.03;31.73;99631.47;4991759;28;20070;-74
2022/04/05 09:59:06;;;;;;;8.52;1.83;;;;;;;11.97;31.78;99634.91;4992280;28;20043;-74
2022/04/05 10:01:36;;;;;;;9.18;1.63;;;;;;;11.46;32.57;99636.78;4990842;28;20128;-75
2022/04/05 10:04:16;;;;;;;6.72;1.50;;;;;;;12.66;31.13;99634.94;4991944;28;20063;-75
2022/04/05 10:06:46;;;;;;;7.50;1.63;;;;;;;12.79;31.05;99631.47;4983932;28;20050;-75
2022/04/05 10:09:18;;;;;;;11.35;1.88;;;;;;;12.88;30.74;99628.41;4991713;28;20074;-75
2022/04/05 10:11:45;;;;;;;9.48;1.65;;;;;;;12.71;30.83;99632.47;4992020;28;20093;-75
2022/04/05 10:14:14;;;;;;;10.40;2.47;;;;;;;11.43;32.48;99626.41;4992659;28;20088;-74
2022/04/05 10:16:45;;;;;;;10.45;1.90;;;;;;;11.69;32.62;99630.41;4992017;28;20096;-75
2022/04/05 10:19:12;;;;;;;13.50;2.00;;;;;;;12.00;32.05;99632.66;4991495;28;20475;-75
2022/04/05 10:21:41;;;;;;;11.07;1.50;;;;;;;12.18;31.89;99624.13;4992328;28;20085;-75
2022/04/05 10:24:10;;;;;;;16.30;2.45;;;;;;;11.67;32.74;99629.75;4992407;28;20046;-75
2022/04/05 10:26:39;;;;;;;12.80;1.80;;;;;;;12.70;31.59;99636.19;4988751;28;20077;-76
2022/04/05 10:29:08;;;;;;;8.30;1.58;;;;;;;12.48;31.78;99638.13;4991905;28;20542;-75
2022/04/05 10:32:01;;;;;;;11.40;1.33;;;;;;;11.82;32.45;99635.03;4992335;28;20079;-75
2022/04/05 10:34:31;;;;;;;8.40;1.70;;;;;;;12.55;31.76;99632.78;4990357;28;20295;-75
2022/04/05 10:37:13;;;;;;;8.93;2.20;;;;;;;12.23;32.24;99636.97;4991049;28;20470;-75
2022/04/05 10:39:40;;;;;;;7.65;1.70;;;;;;;11.62;32.91;99637.50;4991275;28;20054;-75
2022/04/05 10:42:10;;;;;;;8.60;1.77;;;;;;;12.73;31.36;99632.25;4992184;28;20046;-75
2022/04/05 10:44:39;;;;;;;10.18;1.38;;;;;;;12.41;31.21;99629.22;4992540;28;20070;-74
2022/04/05 10:47:07;;;;;;;12.43;2.50;;;;;;;13.22;30.78;99633.91;4991317;28;20121;-75
2022/04/05 10:49:55;;;;;;;5.53;1.50;;;;;;;12.62;30.97;99629.09;4991694;28;20050;-75
2022/04/05 10:52:27;;;;;;;8.68;1.38;;;;;;;12.14;31.69;99642.50;4991967;28;20084;-75
2022/04/05 10:55:04;;;;;;;9.15;1.80;;;;;;;13.32;29.71;99639.72;4992033;28;20054;-74
2022/04/05 10:57:38;;;;;;;9.70;1.77;;;;;;;13.00;29.90;99633.22;4991176;28;20093;-73
2022/04/05 11:00:19;;;;;;;6.35;1.45;;;;;;;13.52;29.46;99637.84;4991033;28;20498;-75
2022/04/05 11:03:01;;;;;;;10.80;1.40;;;;;;;13.08;29.71;99627.66;4992506;28;20101;-75
2022/04/05 11:05:41;;;;;;;10.07;2.47;;;;;;;13.66;29.17;99616.31;4991551;28;20050;-75
2022/04/05 11:08:14;;;;;;;5.60;1.85;;;;;;;14.04;28.82;99617.34;4991001;28;20050;-75
2022/04/05 11:10:40;;;;;;;5.18;1.30;;;;;;;12.82;29.53;99618.44;4991367;28;20105;-75
2022/04/05 11:13:18;;;;;;;10.25;1.92;;;;;;;13.55;28.99;99615.06;4990105;28;20074;-75
2022/04/05 11:15:47;;;;;;;8.38;1.95;;;;;;;13.33;29.58;99612.56;4992470;28;20084;-75
2022/04/05 11:18:19;;;;;;;11.95;1.83;;;;;;;12.60;30.35;99617.72;4991439;28;20136;-75
2022/04/05 11:20:47;;;;;;;12.68;2.22;;;;;;;13.01;29.98;99608.78;4997034;28;20096;-75
2022/04/05 11:23:17;;;;;;;9.45;2.25;;;;;;;13.38;29.56;99608.44;4991425;28;20138;-75
2022/04/05 11:25:46;;;;;;;12.70;2.20;;;;;;;12.31;31.22;99602.66;4992016;28;20549;-75
2022/04/05 11:28:19;;;;;;;7.40;1.30;;;;;;;12.90;30.62;99612.06;4991199;28;20483;-75
2022/04/05 11:30:52;;;;;;;9.20;1.52;;;;;;;12.77;30.86;99614.72;4996035;28;20407;-75
2022/04/05 11:33:31;;;;;;;6.40;1.65;;;;;;;12.90;30.33;99619.31;4994654;28;20117;-75
2022/04/05 11:35:58;;;;;;;16.52;5.18;;;;;;;13.08;30.30;99617.72;5003097;28;20134;-75
2022/04/05 11:38:27;;;;;;;19.63;5.20;;;;;;;12.88;30.67;99614.13;4995859;28;20125;-75
2022/04/05 11:41:11;;;;;;;11.43;3.08;;;;;;;12.44;31.27;99606.47;4995710;28;20332;-75
2022/04/05 11:43:42;;;;;;;12.30;1.70;;;;;;;12.41;31.47;99607.69;4995094;28;20050;-75